Time;durP1;ratioP1;P1;durP2;ratioP2;P2;SDS_P1;SDS_P2;PMS_P1;PMS_P2;Temp;Humidity;BMP_temperature;BMP_pressure;BME280_temperature;BME280_humidity;BME280_pressure;Samples;Min_cycle;Max_cycle;Signal;HPM_P1;HPM_P2
2022/01/03 00:01:26;;;;;;;;;;;12.60;99.90;;;;;;7349181;19;109433;-91
2022/01/03 00:03:54;;;;;;;;;;;12.60;99.90;;;;;;7348633;19;113796;-88
2022/01/03 00:06:21;;;;;;;;;;;12.60;99.90;;;;;;7347494;19;112192;-88
2022/01/03 00:08:49;;;;;;;;;;;12.60;99.90;;;;;;7347558;19;109390;-88
2022/01/03 00:11:17;;;;;;;;;;;12.60;99.90;;;;;;7348077;19;113041;-89
2022/01/03 00:13:48;;;;;;;;;;;12.60;99.90;;;;;;7347695;19;114429;-89
2022/01/03 00:16:19;;;;;;;;;;;12.60;99.90;;;;;;7348169;19;109425;-88
2022/01/03 00:18:47;;;;;;;;;;;12.60;99.90;;;;;;7353093;19;112456;-88
2022/01/03 00:21:16;;;;;;;;;;;12.60;99.90;;;;;;7346459;19;109472;-90
2022/01/03 00:23:50;;;;;;;;;;;12.60;99.90;;;;;;7350788;19;113042;-87
2022/01/03 00:26:22;;;;;;;;;;;12.60;99.90;;;;;;7346717;19;113312;-88
2022/01/03 00:29:00;;;;;;;;;;;12.50;99.90;;;;;;7347736;19;109366;-88
2022/01/03 00:31:33;;;;;;;;;;;12.50;99.90;;;;;;7347184;19;112318;-87
2022/01/03 00:34:03;;;;;;;;;;;12.50;99.90;;;;;;7348527;19;114836;-91
2022/01/03 00:36:31;;;;;;;;;;;12.40;99.90;;;;;;7346549;19;109346;-88
2022/01/03 00:38:58;;;;;;;;;;;12.50;99.90;;;;;;7347154;19;110198;-88
2022/01/03 00:41:29;;;;;;;;;;;12.50;99.90;;;;;;7352196;19;115156;-90
2022/01/03 00:43:56;;;;;;;;;;;12.40;99.90;;;;;;7346913;19;113799;-89
2022/01/03 00:46:25;;;;;;;;;;;12.40;99.90;;;;;;7347992;19;115382;-91
2022/01/03 00:48:53;;;;;;;;;;;12.40;99.90;;;;;;7348153;19;109974;-90
2022/01/03 00:51:20;;;;;;;;;;;12.40;99.90;;;;;;7347068;19;114877;-88
2022/01/03 00:53:48;;;;;;;;;;;12.40;99.90;;;;;;7345837;19;114789;-88
2022/01/03 00:56:18;;;;;;;;;;;12.30;99.90;;;;;;7345362;19;109347;-88
2022/01/03 00:58:48;;;;;;;;;;;12.30;99.90;;;;;;7346300;19;113045;-89
2022/01/03 01:01:17;;;;;;;;;;;12.20;99.90;;;;;;7345657;19;115343;-88
2022/01/03 01:03:47;;;;;;;;;;;12.20;99.90;;;;;;7352182;19;109487;-88
2022/01/03 01:06:14;;;;;;;;;;;12.10;99.90;;;;;;7344790;19;114372;-88
2022/01/03 01:08:42;;;;;;;;;;;12.20;99.90;;;;;;7347802;19;109339;-90
2022/01/03 01:11:09;;;;;;;;;;;12.10;99.90;;;;;;7348074;19;112521;-89
2022/01/03 01:13:39;;;;;;;;;;;12.10;99.90;;;;;;7348226;19;114242;-88
2022/01/03 01:16:07;;;;;;;;;;;12.10;99.90;;;;;;7349710;19;109498;-88
2022/01/03 01:18:36;;;;;;;;;;;12.10;99.90;;;;;;7347259;19;113070;-90
2022/01/03 01:21:04;;;;;;;;;;;12.10;99.90;;;;;;7347618;19;115820;-89
2022/01/03 01:23:31;;;;;;;;;;;12.10;99.90;;;;;;7347193;19;109448;-89
2022/01/03 01:28:44;;;;;;;;;;;12.20;99.90;;;;;;7348520;19;109455;-87
2022/01/03 01:31:15;;;;;;;;;;;12.10;99.90;;;;;;7347173;19;112070;-89
2022/01/03 01:33:43;;;;;;;;;;;12.20;99.90;;;;;;7346165;19;116272;-90
2022/01/03 01:36:12;;;;;;;;;;;12.10;99.90;;;;;;7348082;19;109431;-88
2022/01/03 01:38:39;;;;;;;;;;;12.10;99.90;;;;;;7347617;19;112498;-88
2022/01/03 01:41:08;;;;;;;;;;;12.10;99.90;;;;;;7346157;19;111683;-87
2022/01/03 01:43:41;;;;;;;;;;;12.10;99.90;;;;;;7345852;19;109703;-88
2022/01/03 01:46:16;;;;;;;;;;;12.20;99.90;;;;;;7344918;19;111961;-87
2022/01/03 01:48:44;;;;;;;;;;;12.20;99.90;;;;;;7351050;19;117473;-90
2022/01/03 01:51:12;;;;;;;;;;;12.20;99.90;;;;;;7347826;19;111018;-88
2022/01/03 01:53:44;;;;;;;;;;;12.10;99.90;;;;;;7346588;19;110953;-90
2022/01/03 01:56:16;;;;;;;;;;;12.20;99.90;;;;;;7346544;19;109931;-88
2022/01/03 01:59:01;;;;;;;;;;;12.20;99.90;;;;;;7346297;19;113351;-91
2022/01/03 02:01:40;;;;;;;;;;;12.30;99.90;;;;;;7346125;19;112821;-88
2022/01/03 02:04:31;;;;;;;;;;;12.30;99.90;;;;;;7344856;19;109458;-87
2022/01/03 02:07:25;;;;;;;;;;;12.20;99.90;;;;;;7346442;19;110758;-86
2022/01/03 02:10:02;;;;;;;;;;;12.10;99.90;;;;;;7343328;19;114198;-90
2022/01/03 02:12:30;;;;;;;;;;;12.10;99.90;;;;;;7352608;19;109495;-89
2022/01/03 02:14:58;;;;;;;;;;;12.10;99.90;;;;;;7346432;19;115050;-91
2022/01/03 02:17:24;;;;;;;;;;;12.10;99.90;;;;;;7344419;19;109443;-88
2022/01/03 02:20:10;;;;;;;;;;;12.10;99.90;;;;;;7346851;19;113733;-88
2022/01/03 02:22:38;;;;;;;;;;;12.10;99.90;;;;;;7345653;19;112388;-91
2022/01/03 02:25:06;;;;;;;;;;;12.10;99.90;;;;;;7346515;19;109349;-88
2022/01/03 02:27:33;;;;;;;;;;;12.10;99.90;;;;;;7343117;19;110952;-88
2022/01/03 02:30:00;;;;;;;;;;;12.10;99.90;;;;;;7344687;19;112020;-88
2022/01/03 02:32:27;;;;;;;;;;;12.10;99.90;;;;;;7350253;19;109326;-88
2022/01/03 02:34:57;;;;;;;;;;;12.10;99.90;;;;;;7344128;19;114787;-90
2022/01/03 02:45:30;;;;;;;;;;;12.00;99.90;;;;;;7343595;19;110219;-89
2022/01/03 02:48:11;;;;;;;;;;;12.00;99.90;;;;;;7340946;19;109319;-92
2022/01/03 02:50:45;;;;;;;;;;;12.10;99.90;;;;;;7343453;19;112549;-90
2022/01/03 02:53:20;;;;;;;;;;;12.00;99.90;;;;;;7345137;19;111203;-90
2022/01/03 02:55:49;;;;;;;;;;;12.00;99.90;;;;;;7344795;19;109744;-90
2022/01/03 02:58:36;;;;;;;;;;;12.00;99.90;;;;;;7349624;19;110621;-90
2022/01/03 03:01:15;;;;;;;;;;;12.00;99.90;;;;;;7343011;19;109460;-88
2022/01/03 03:03:42;;;;;;;;;;;12.00;99.90;;;;;;7343481;19;114188;-86
2022/01/03 03:06:09;;;;;;;;;;;12.00;99.90;;;;;;7346935;19;114946;-86
2022/01/03 03:08:36;;;;;;;;;;;11.90;99.90;;;;;;7349907;19;109957;-87
2022/01/03 03:11:03;;;;;;;;;;;12.00;99.90;;;;;;7350409;19;113945;-87
2022/01/03 03:13:30;;;;;;;;;;;11.90;99.90;;;;;;7351600;19;112649;-88
2022/01/03 03:15:58;;;;;;;;;;;12.00;99.90;;;;;;7352673;19;109281;-87
2022/01/03 03:18:25;;;;;;;;;;;12.00;99.90;;;;;;7350510;19;111372;-91
2022/01/03 03:20:54;;;;;;;;;;;12.00;99.90;;;;;;7356424;19;114768;-88
2022/01/03 03:23:23;;;;;;;;;;;12.00;99.90;;;;;;7350695;19;112986;-87
2022/01/03 03:25:50;;;;;;;;;;;12.00;99.90;;;;;;7351598;19;112181;-87
2022/01/03 03:28:17;;;;;;;;;;;12.00;99.90;;;;;;7346757;19;109359;-88
2022/01/03 03:30:46;;;;;;;;;;;12.00;99.90;;;;;;7349695;19;111276;-88
2022/01/03 03:33:15;;;;;;;;;;;12.00;99.90;;;;;;7348705;19;114848;-87
2022/01/03 03:35:43;;;;;;;;;;;12.00;99.90;;;;;;7350017;19;109428;-87
2022/01/03 03:38:10;;;;;;;;;;;12.10;99.90;;;;;;7348349;19;111173;-88
2022/01/03 03:40:37;;;;;;;;;;;12.00;99.90;;;;;;7348467;19;113294;-88
2022/01/03 03:43:04;;;;;;;;;;;12.00;99.90;;;;;;7354601;19;109395;-88
2022/01/03 03:45:32;;;;;;;;;;;12.00;99.90;;;;;;7348094;19;113432;-88
2022/01/03 03:48:00;;;;;;;;;;;12.00;99.90;;;;;;7347316;19;109365;-88
2022/01/03 03:50:27;;;;;;;;;;;12.10;99.90;;;;;;7347958;19;111594;-88
2022/01/03 03:52:54;;;;;;;;;;;12.00;99.90;;;;;;7348462;19;113890;-88
2022/01/03 03:55:21;;;;;;;;;;;12.00;99.90;;;;;;7348330;19;109493;-88
2022/01/03 03:57:48;;;;;;;;;;;12.00;99.90;;;;;;7348098;19;114823;-88
2022/01/03 04:00:17;;;;;;;;;;;12.00;99.90;;;;;;7347641;19;114811;-88
2022/01/03 04:02:44;;;;;;;;;;;12.10;99.90;;;;;;7348424;19;109331;-88
2022/01/03 04:05:12;;;;;;;;;;;12.10;99.90;;;;;;7354256;19;109880;-88
2022/01/03 04:07:39;;;;;;;;;;;12.10;99.90;;;;;;7346310;19;109549;-88
2022/01/03 04:10:07;;;;;;;;;;;12.10;99.90;;;;;;7348777;19;113227;-88
2022/01/03 04:12:34;;;;;;;;;;;12.10;99.90;;;;;;7346286;19;115538;-88
2022/01/03 04:15:02;;;;;;;;;;;12.10;99.90;;;;;;7349053;19;109438;-88
2022/01/03 04:17:29;;;;;;;;;;;12.10;99.90;;;;;;7347314;19;113885;-87
2022/01/03 04:19:56;;;;;;;;;;;12.10;99.90;;;;;;7346914;19;115408;-88
2022/01/03 04:22:22;;;;;;;;;;;12.10;99.90;;;;;;7348447;19;109414;-91
2022/01/03 04:24:49;;;;;;;;;;;12.10;99.90;;;;;;7354046;19;114783;-89
2022/01/03 04:27:16;;;;;;;;;;;12.10;99.90;;;;;;7349060;19;109385;-88
2022/01/03 04:29:43;;;;;;;;;;;12.10;99.90;;;;;;7347586;19;112474;-87
2022/01/03 04:32:10;;;;;;;;;;;12.10;99.90;;;;;;7349890;19;112708;-88
2022/01/03 04:34:37;;;;;;;;;;;12.10;99.90;;;;;;7346557;19;109382;-88
2022/01/03 04:37:09;;;;;;;;;;;12.10;99.90;;;;;;7348414;19;111295;-89
2022/01/03 04:39:35;;;;;;;;;;;12.10;99.90;;;;;;7347155;19;115370;-89
2022/01/03 04:42:02;;;;;;;;;;;12.00;99.90;;;;;;7348312;19;109291;-89
2022/01/03 04:44:31;;;;;;;;;;;12.00;99.90;;;;;;7348580;19;113019;-88
2022/01/03 04:46:59;;;;;;;;;;;12.00;99.90;;;;;;7353009;19;114519;-87
2022/01/03 04:49:26;;;;;;;;;;;11.90;99.90;;;;;;7346884;19;113818;-88
2022/01/03 04:51:53;;;;;;;;;;;11.90;99.90;;;;;;7347294;19;114944;-88
2022/01/03 04:54:20;;;;;;;;;;;11.90;99.90;;;;;;7349004;19;109599;-90
2022/01/03 04:56:47;;;;;;;;;;;11.90;99.90;;;;;;7347976;19;112357;-90
2022/01/03 04:59:14;;;;;;;;;;;11.90;99.90;;;;;;7348208;19;113798;-89
2022/01/03 05:01:41;;;;;;;;;;;11.90;99.90;;;;;;7347876;19;109441;-91
2022/01/03 05:04:08;;;;;;;;;;;11.90;99.90;;;;;;7349384;19;110015;-89
2022/01/03 05:06:35;;;;;;;;;;;11.80;99.90;;;;;;7347571;19;114353;-88
2022/01/03 05:09:02;;;;;;;;;;;11.80;99.90;;;;;;7351960;19;109384;-91
2022/01/03 05:11:29;;;;;;;;;;;11.80;99.90;;;;;;7347648;19;113369;-89
2022/01/03 05:13:56;;;;;;;;;;;11.80;99.90;;;;;;7347840;19;109473;-88
2022/01/03 05:16:23;;;;;;;;;;;11.80;99.90;;;;;;7348364;19;115226;-90
2022/01/03 05:18:50;;;;;;;;;;;11.80;99.90;;;;;;7347682;19;112810;-91
2022/01/03 05:21:17;;;;;;;;;;;11.80;99.90;;;;;;7348817;19;109438;-89
2022/01/03 05:23:44;;;;;;;;;;;11.90;99.90;;;;;;7347596;19;114245;-89
2022/01/03 05:26:12;;;;;;;;;;;11.90;99.90;;;;;;7347886;19;115374;-88
2022/01/03 05:28:39;;;;;;;;;;;11.90;99.90;;;;;;7342726;19;109562;-89
2022/01/03 05:31:08;;;;;;;;;;;11.90;99.90;;;;;;7352533;19;114405;-91
2022/01/03 05:33:35;;;;;;;;;;;11.80;99.90;;;;;;7348037;19;109178;-91
2022/01/03 05:36:02;;;;;;;;;;;11.90;99.90;;;;;;7347387;19;112597;-90
2022/01/03 05:38:30;;;;;;;;;;;11.90;99.90;;;;;;7346701;19;112969;-90
2022/01/03 05:41:01;;;;;;;;;;;11.90;99.90;;;;;;7347461;19;109280;-90
2022/01/03 05:43:35;;;;;;;;;;;11.90;99.90;;;;;;7348218;19;112898;-90
2022/01/03 05:46:02;;;;;;;;;;;12.00;99.90;;;;;;7344924;19;114434;-90
2022/01/03 05:48:29;;;;;;;;;;;12.00;99.90;;;;;;7345046;19;109386;-89
2022/01/03 05:50:56;;;;;;;;;;;12.00;99.90;;;;;;7346278;19;112108;-88
2022/01/03 05:53:23;;;;;;;;;;;12.00;99.90;;;;;;7350516;19;113833;-89
2022/01/03 05:55:51;;;;;;;;;;;12.00;99.90;;;;;;7345635;19;113297;-88
2022/01/03 05:58:18;;;;;;;;;;;12.00;99.90;;;;;;7345553;19;112726;-89
2022/01/03 06:00:46;;;;;;;;;;;12.00;99.90;;;;;;7347766;19;109367;-90
2022/01/03 06:03:14;;;;;;;;;;;12.00;99.90;;;;;;7343912;19;110859;-88
2022/01/03 06:06:53;;;;;;;;;;;12.00;99.90;;;;;;7345019;19;116602;-88
2022/01/03 06:08:32;;;;;;;;;;;12.00;99.90;;;;;;7342722;19;109736;-88
2022/01/03 06:10:59;;;;;;;;;;;12.00;99.90;;;;;;7343017;19;113087;-88
2022/01/03 06:13:26;;;;;;;;;;;12.00;99.90;;;;;;7343780;19;114395;-88
2022/01/03 06:15:53;;;;;;;;;;;12.00;99.90;;;;;;7349272;19;109452;-89
2022/01/03 06:18:20;;;;;;;;;;;12.00;99.90;;;;;;7343512;19;113238;-89
2022/01/03 06:20:48;;;;;;;;;;;12.00;99.90;;;;;;7343655;19;109355;-88
2022/01/03 06:23:15;;;;;;;;;;;12.00;99.90;;;;;;7343176;19;113700;-88
2022/01/03 06:25:43;;;;;;;;;;;12.00;99.90;;;;;;7345206;19;114892;-92
2022/01/03 06:28:10;;;;;;;;;;;12.00;99.90;;;;;;7344915;19;109511;-88
2022/01/03 06:30:39;;;;;;;;;;;12.00;99.90;;;;;;7347824;19;114626;-90
2022/01/03 06:33:06;;;;;;;;;;;12.00;99.90;;;;;;7344507;19;114795;-91
2022/01/03 06:35:33;;;;;;;;;;;12.10;99.90;;;;;;7350519;19;109342;-89
2022/01/03 06:38:03;;;;;;;;;;;12.10;99.90;;;;;;7339449;19;115509;-83
2022/01/03 06:40:29;;;;;;;;;;;12.00;99.90;;;;;;7344392;19;109331;-83
2022/01/03 06:42:56;;;;;;;;;;;12.00;99.90;;;;;;7344558;19;110833;-83
2022/01/03 06:45:23;;;;;;;;;;;12.00;99.90;;;;;;7344360;19;111972;-83
2022/01/03 06:47:55;;;;;;;;;;;12.00;99.90;;;;;;7343842;19;109263;-84
2022/01/03 06:50:22;;;;;;;;;;;12.10;99.90;;;;;;7346132;19;110842;-85
2022/01/03 06:52:49;;;;;;;;;;;12.10;99.90;;;;;;7350636;19;111888;-84
2022/01/03 06:55:16;;;;;;;;;;;12.00;99.90;;;;;;7351148;19;109314;-84
2022/01/03 06:57:43;;;;;;;;;;;12.00;99.90;;;;;;7358191;19;110447;-84
2022/01/03 07:00:10;;;;;;;;;;;12.00;99.90;;;;;;7349165;19;109601;-84
2022/01/03 07:02:41;;;;;;;;;;;12.00;99.90;;;;;;7350573;19;110968;-84
2022/01/03 07:05:09;;;;;;;;;;;12.00;99.90;;;;;;7351139;19;113009;-84
2022/01/03 07:07:36;;;;;;;;;;;12.00;99.90;;;;;;7350153;19;109316;-85
2022/01/03 07:10:03;;;;;;;;;;;12.00;99.90;;;;;;7347623;19;110669;-85
2022/01/03 07:12:30;;;;;;;;;;;12.00;99.90;;;;;;7348873;19;111821;-84
2022/01/03 07:20:10;;;;;;;;;;;12.00;99.90;;;;;;7357039;19;112116;-84
2022/01/03 07:22:39;;;;;;;;;;;12.00;99.90;;;;;;7350032;19;111116;-84
2022/01/03 07:25:07;;;;;;;;;;;12.00;99.90;;;;;;7350140;19;111940;-82
2022/01/03 07:27:34;;;;;;;;;;;12.00;99.90;;;;;;7350523;19;109212;-84
2022/01/03 07:30:01;;;;;;;;;;;12.00;99.90;;;;;;7346918;19;111115;-83
2022/01/03 07:32:27;;;;;;;;;;;12.00;99.90;;;;;;7350080;19;112282;-83
2022/01/03 07:34:54;;;;;;;;;;;12.00;99.90;;;;;;7348567;19;109421;-83
2022/01/03 07:37:21;;;;;;;;;;;12.00;99.90;;;;;;7350474;19;110946;-85
2022/01/03 07:39:48;;;;;;;;;;;12.00;99.90;;;;;;7348124;19;109914;-83
2022/01/03 07:42:15;;;;;;;;;;;12.00;99.90;;;;;;7356745;19;109431;-85
2022/01/03 07:44:42;;;;;;;;;;;12.00;99.90;;;;;;7349149;19;112002;-83
2022/01/03 07:47:09;;;;;;;;;;;12.00;99.90;;;;;;7350474;19;109325;-84
2022/01/03 07:49:36;;;;;;;;;;;12.00;99.90;;;;;;7348606;19;110741;-84
2022/01/03 07:52:03;;;;;;;;;;;12.00;99.90;;;;;;7348894;19;111858;-83
2022/01/03 07:54:30;;;;;;;;;;;12.00;99.90;;;;;;7348980;19;109338;-84
2022/01/03 07:56:58;;;;;;;;;;;12.00;99.90;;;;;;7350368;19;111056;-86
2022/01/03 07:59:24;;;;;;;;;;;12.00;99.90;;;;;;7350424;19;112047;-83
2022/01/03 08:01:51;;;;;;;;;;;11.90;99.90;;;;;;7348431;19;109369;-83
2022/01/03 08:04:19;;;;;;;;;;;12.00;99.90;;;;;;7355234;19;111124;-84
2022/01/03 08:06:46;;;;;;;;;;;11.90;99.90;;;;;;7349511;19;109361;-84
2022/01/03 08:09:12;;;;;;;;;;;12.00;99.90;;;;;;7349183;19;110606;-84
2022/01/03 08:11:39;;;;;;;;;;;12.00;99.90;;;;;;7348565;19;112036;-84
2022/01/03 08:14:06;;;;;;;;;;;12.00;99.90;;;;;;7349314;19;109885;-86
2022/01/03 08:16:33;;;;;;;;;;;12.00;99.90;;;;;;7348800;19;110787;-84
2022/01/03 08:19:01;;;;;;;;;;;12.00;99.90;;;;;;7347052;19;112192;-85
2022/01/03 08:21:28;;;;;;;;;;;12.00;99.90;;;;;;7347924;19;109230;-85
2022/01/03 08:23:55;;;;;;;;;;;12.00;99.90;;;;;;7344191;19;111740;-86
2022/01/03 08:26:21;;;;;;;;;;;12.00;99.90;;;;;;7353440;19;110447;-85
2022/01/03 08:28:48;;;;;;;;;;;12.00;99.90;;;;;;7347182;19;109518;-84
2022/01/03 08:31:15;;;;;;;;;;;11.90;99.90;;;;;;7348962;19;112068;-84
2022/01/03 08:33:43;;;;;;;;;;;11.90;99.90;;;;;;7349223;19;109255;-83
2022/01/03 08:36:10;;;;;;;;;;;11.90;99.90;;;;;;7349175;19;110990;-83
2022/01/03 08:38:37;;;;;;;;;;;11.90;99.90;;;;;;7346584;19;110319;-83
2022/01/03 08:41:04;;;;;;;;;;;11.90;99.90;;;;;;7348848;19;109437;-84
2022/01/03 08:43:31;;;;;;;;;;;11.90;99.90;;;;;;7349447;19;110826;-83
2022/01/03 08:45:58;;;;;;;;;;;11.90;99.90;;;;;;7353606;19;112104;-83
2022/01/03 08:48:25;;;;;;;;;;;12.00;99.90;;;;;;7349540;19;111088;-83
2022/01/03 08:50:52;;;;;;;;;;;11.90;99.90;;;;;;7343304;19;112183;-83
2022/01/03 08:53:25;;;;;;;;;;;12.00;99.90;;;;;;7349328;19;109858;-83
2022/01/03 08:55:55;;;;;;;;;;;12.10;99.90;;;;;;7348445;19;112077;-83
2022/01/03 08:58:23;;;;;;;;;;;12.10;99.90;;;;;;7348047;19;111987;-83
2022/01/03 09:00:50;;;;;;;;;;;12.10;99.90;;;;;;7348863;19;109427;-83
2022/01/03 09:03:17;;;;;;;;;;;12.00;99.90;;;;;;7345718;19;111260;-83
2022/01/03 09:05:45;;;;;;;;;;;12.00;99.90;;;;;;7348116;19;111705;-83
2022/01/03 09:08:12;;;;;;;;;;;12.00;99.90;;;;;;7353268;19;109289;-83
2022/01/03 09:10:39;;;;;;;;;;;12.10;99.90;;;;;;7344929;19;112706;-83
2022/01/03 09:13:06;;;;;;;;;;;12.10;99.90;;;;;;7346949;19;109303;-82
2022/01/03 09:15:33;;;;;;;;;;;12.10;99.90;;;;;;7348252;19;110055;-83
2022/01/03 09:18:00;;;;;;;;;;;12.20;99.90;;;;;;7345626;19;111668;-83
2022/01/03 09:20:27;;;;;;;;;;;12.10;99.90;;;;;;7347858;19;109218;-83
2022/01/03 09:22:57;;;;;;;;;;;12.10;99.90;;;;;;7348130;19;111108;-83
2022/01/03 09:30:50;;;;;;;;;;;12.20;99.90;;;;;;7349650;19;111147;-83
2022/01/03 09:33:17;;;;;;;;;;;12.20;99.90;;;;;;7348316;19;109512;-83
2022/01/03 09:35:51;;;;;;;;;;;12.20;99.90;;;;;;7347295;19;110761;-83
2022/01/03 09:38:17;;;;;;;;;;;12.20;99.90;;;;;;7347157;19;112248;-84
2022/01/03 09:40:45;;;;;;;;;;;12.20;99.90;;;;;;7345844;19;109398;-83
2022/01/03 09:43:16;;;;;;;;;;;12.30;99.90;;;;;;7347454;19;111121;-83
2022/01/03 09:45:45;;;;;;;;;;;12.30;99.90;;;;;;7346841;19;113576;-83
2022/01/03 09:48:14;;;;;;;;;;;12.30;99.90;;;;;;7345297;19;109435;-83
2022/01/03 09:50:42;;;;;;;;;;;12.30;99.90;;;;;;7345861;19;110620;-83
2022/01/03 09:53:09;;;;;;;;;;;12.30;99.90;;;;;;7351078;19;112339;-83
2022/01/03 09:55:36;;;;;;;;;;;12.30;99.90;;;;;;7345973;19;111797;-83
2022/01/03 09:58:03;;;;;;;;;;;12.30;99.90;;;;;;7344227;19;111768;-83
2022/01/03 10:00:30;;;;;;;;;;;12.30;99.90;;;;;;7345597;19;109345;-83
2022/01/03 10:02:57;;;;;;;;;;;12.40;99.90;;;;;;7345019;19;110776;-83
2022/01/03 10:05:25;;;;;;;;;;;12.40;99.90;;;;;;7345851;19;111738;-82
2022/01/03 10:07:52;;;;;;;;;;;12.40;99.90;;;;;;7346679;19;109253;-85
2022/01/03 10:10:18;;;;;;;;;;;12.30;99.90;;;;;;7344568;19;111218;-85
2022/01/03 10:12:45;;;;;;;;;;;12.30;99.90;;;;;;7346242;19;112026;-85
2022/01/03 10:15:13;;;;;;;;;;;12.40;99.90;;;;;;7349582;19;109586;-83
2022/01/03 10:17:41;;;;;;;;;;;12.40;99.90;;;;;;7345903;19;112144;-83
2022/01/03 10:20:10;;;;;;;;;;;12.40;99.90;;;;;;7347279;19;109972;-85
2022/01/03 10:22:38;;;;;;;;;;;12.40;99.90;;;;;;7345046;19;110651;-84
2022/01/03 10:25:16;;;;;;;;;;;12.40;99.90;;;;;;7345519;19;112011;-83
2022/01/03 10:27:55;;;;;;;;;;;12.40;99.90;;;;;;7345670;19;109239;-86
2022/01/03 10:30:34;;;;;;;;;;;12.50;99.90;;;;;;7342844;19;110906;-83
2022/01/03 10:33:03;;;;;;;;;;;12.50;99.90;;;;;;7343966;19;112114;-85
2022/01/03 10:35:35;;;;;;;;;;;12.40;99.90;;;;;;7345162;19;109280;-85
2022/01/03 10:38:02;;;;;;;;;;;12.50;99.90;;;;;;7349899;19;110783;-84
2022/01/03 10:40:29;;;;;;;;;;;12.50;99.90;;;;;;7345715;19;109294;-85
2022/01/03 10:42:58;;;;;;;;;;;12.50;99.90;;;;;;7345369;19;111405;-83
2022/01/03 10:45:29;;;;;;;;;;;12.40;99.90;;;;;;7343840;19;110534;-85
2022/01/03 10:47:57;;;;;;;;;;;12.50;99.90;;;;;;7346316;19;109412;-84
2022/01/03 10:50:24;;;;;;;;;;;12.50;99.90;;;;;;7344324;19;110719;-82
2022/01/03 10:52:51;;;;;;;;;;;12.50;99.90;;;;;;7344995;19;111965;-83
2022/01/03 10:55:18;;;;;;;;;;;12.50;99.90;;;;;;7345007;19;110011;-83
2022/01/03 10:57:45;;;;;;;;;;;12.40;99.90;;;;;;7349881;19;110950;-86
2022/01/03 11:00:16;;;;;;;;;;;12.40;99.90;;;;;;7344952;19;109428;-83
2022/01/03 11:03:05;;;;;;;;;;;12.40;99.90;;;;;;7342972;19;110884;-85
2022/01/03 11:05:39;;;;;;;;;;;12.40;99.90;;;;;;7344343;19;111809;-82
2022/01/03 11:10:45;;;;;;;;;;;12.50;99.90;;;;;;7342415;19;110999;-83
2022/01/03 11:13:16;;;;;;;;;;;12.50;99.90;;;;;;7341201;19;112080;-83
2022/01/03 11:15:52;;;;;;;;;;;12.50;99.90;;;;;;7344253;19;109598;-84
2022/01/03 11:18:21;;;;;;;;;;;12.50;99.90;;;;;;7343147;19;111008;-84
2022/01/03 11:20:49;;;;;;;;;;;12.50;99.90;;;;;;7349358;19;112029;-83
2022/01/03 11:23:21;;;;;;;;;;;12.50;99.90;;;;;;7344646;19;109377;-84
2022/01/03 11:25:49;;;;;;;;;;;12.40;99.90;;;;;;7345361;19;113085;-83
2022/01/03 11:28:16;;;;;;;;;;;12.50;99.90;;;;;;7350940;19;109332;-84
2022/01/03 11:30:44;;;;;;;;;;;12.50;99.90;;;;;;7347857;19;110724;-84
2022/01/03 11:33:15;;;;;;;;;;;12.50;99.90;;;;;;7347176;19;132171;-83
2022/01/03 11:35:46;;;;;;;;;;;12.50;99.90;;;;;;7351194;19;110068;-84
2022/01/03 11:38:14;;;;;;;;;;;12.40;99.90;;;;;;7350141;19;110936;-83
2022/01/03 11:40:46;;;;;;;;;;;12.50;99.90;;;;;;7350750;19;113215;-83
2022/01/03 11:43:13;;;;;;;;;;;12.50;99.90;;;;;;7354111;19;109405;-83
2022/01/03 11:45:41;;;;;;;;;;;12.50;99.90;;;;;;7350800;19;112094;-83
2022/01/03 11:48:08;;;;;;;;;;;12.50;99.90;;;;;;7348891;19;110049;-83
2022/01/03 11:50:36;;;;;;;;;;;12.40;99.90;;;;;;7349809;19;110391;-83
2022/01/03 11:53:07;;;;;;;;;;;12.40;99.90;;;;;;7347550;19;110202;-83
2022/01/03 11:55:34;;;;;;;;;;;12.40;99.90;;;;;;7352824;19;109343;-83
2022/01/03 12:06:03;;;;;;;;;;;12.50;99.90;;;;;;7354661;19;111818;-83
2022/01/03 12:08:35;;;;;;;;;;;12.50;99.90;;;;;;7350207;19;109787;-83
2022/01/03 12:11:15;;;;;;;;;;;12.50;99.90;;;;;;7348371;19;110884;-82
2022/01/03 12:13:45;;;;;;;;;;;12.50;99.90;;;;;;7348126;19;112036;-83
2022/01/03 12:16:15;;;;;;;;;;;12.50;99.90;;;;;;7350029;19;109373;-82
2022/01/03 12:18:58;;;;;;;;;;;12.40;99.90;;;;;;7349616;19;110686;-83
2022/01/03 12:21:43;;;;;;;;;;;12.40;99.90;;;;;;7349516;19;112584;-84
2022/01/03 12:24:25;;;;;;;;;;;12.40;99.90;;;;;;7348000;19;109912;-83
2022/01/03 12:27:13;;;;;;;;;;;12.30;99.90;;;;;;7349377;19;111053;-83
2022/01/03 12:29:49;;;;;;;;;;;12.30;99.90;;;;;;7355215;19;112234;-83
2022/01/03 12:32:16;;;;;;;;;;;12.30;99.90;;;;;;7345948;19;110719;-82
2022/01/03 12:34:43;;;;;;;;;;;12.20;99.90;;;;;;7348078;19;111609;-83
2022/01/03 12:37:13;;;;;;;;;;;12.30;99.90;;;;;;7349054;19;109459;-82
2022/01/03 12:39:58;;;;;;;;;;;12.20;99.90;;;;;;7348343;19;111123;-81
2022/01/03 12:42:44;;;;;;;;;;;12.10;99.90;;;;;;7347752;19;112076;-82
2022/01/03 12:45:11;;;;;;;;;;;12.10;99.90;;;;;;7347768;19;110894;-82
2022/01/03 12:47:39;;;;;;;;;;;12.00;99.90;;;;;;7349078;19;110986;-82
2022/01/03 12:50:23;;;;;;;;;;;12.00;99.90;;;;;;7346169;19;111752;-82
2022/01/03 12:52:50;;;;;;;;;;;11.90;99.90;;;;;;7354193;19;108988;-82
2022/01/03 12:55:35;;;;;;;;;;;11.80;99.90;;;;;;7346735;19;112062;-82
2022/01/03 12:58:22;;;;;;;;;;;11.80;99.90;;;;;;7347423;19;109349;-81
2022/01/03 13:00:56;;;;;;;;;;;11.80;99.90;;;;;;7347727;19;111204;-81
2022/01/03 13:03:25;;;;;;;;;;;11.80;99.90;;;;;;7347551;19;111596;-81
2022/01/03 13:06:10;;;;;;;;;;;11.80;99.90;;;;;;7347809;19;109294;-81
2022/01/03 13:08:52;;;;;;;;;;;11.80;99.90;;;;;;7348189;19;111180;-81
2022/01/03 13:11:20;;;;;;;;;;;11.80;99.90;;;;;;7345973;19;112144;-81
2022/01/03 13:13:51;;;;;;;;;;;11.80;99.90;;;;;;7353939;19;109386;-81
2022/01/03 13:16:22;;;;;;;;;;;11.80;99.90;;;;;;7345748;19;113283;-81
2022/01/03 13:19:06;;;;;;;;;;;11.80;99.90;;;;;;7348799;19;110376;-82
2022/01/03 13:21:36;;;;;;;;;;;11.80;99.90;;;;;;7348619;19;110952;-81
2022/01/03 13:24:08;;;;;;;;;;;11.70;99.90;;;;;;7346645;19;112793;-81
2022/01/03 13:26:49;;;;;;;;;;;11.80;99.90;;;;;;7348349;19;109281;-81
2022/01/03 13:29:16;;;;;;;;;;;11.80;99.90;;;;;;7346332;19;110693;-81
2022/01/03 13:31:48;;;;;;;;;;;11.80;99.90;;;;;;7346050;19;112206;-82
2022/01/03 13:34:18;;;;;;;;;;;11.80;99.90;;;;;;7347311;19;109347;-81
2022/01/03 13:36:45;;;;;;;;;;;11.70;99.90;;;;;;7352766;19;110552;-82
2022/01/03 13:39:19;;;;;;;;;;;11.70;99.90;;;;;;7346775;19;109263;-81
2022/01/03 13:41:47;;;;;;;;;;;11.70;99.90;;;;;;7344546;19;110705;-82
2022/01/03 13:49:11;;;;;;;;;;;11.70;99.90;;;;;;7347196;19;112825;-82
2022/01/03 13:50:27;;;;;;;;;;;11.70;99.90;;;;;;7345410;19;110768;-82
2022/01/03 13:52:55;;;;;;;;;;;11.70;99.90;;;;;;7344969;19;112043;-82
2022/01/03 13:55:22;;;;;;;;;;;11.60;99.90;;;;;;7346368;19;109497;-82
2022/01/03 13:57:51;;;;;;;;;;;11.70;99.90;;;;;;7345820;19;111317;-82
2022/01/03 14:00:19;;;;;;;;;;;11.70;99.90;;;;;;7351125;19;112127;-82
2022/01/03 14:02:46;;;;;;;;;;;11.60;99.90;;;;;;7346901;19;110540;-82
2022/01/03 14:05:14;;;;;;;;;;;11.70;99.90;;;;;;7345538;19;112377;-82
2022/01/03 14:07:52;;;;;;;;;;;11.70;99.90;;;;;;7346481;19;109329;-82
2022/01/03 14:10:19;;;;;;;;;;;11.60;99.90;;;;;;7346038;19;110846;-82
2022/01/03 14:12:53;;;;;;;;;;;11.70;99.90;;;;;;7342637;19;111817;-82
2022/01/03 14:15:20;;;;;;;;;;;11.70;99.90;;;;;;7347243;19;109393;-82
2022/01/03 14:17:48;;;;;;;;;;;11.70;99.90;;;;;;7344195;19;110758;-82
2022/01/03 14:20:17;;;;;;;;;;;11.70;99.90;;;;;;7346134;19;112076;-82
2022/01/03 14:22:45;;;;;;;;;;;11.60;99.90;;;;;;7348717;19;109485;-82
2022/01/03 14:25:13;;;;;;;;;;;11.70;99.90;;;;;;7344204;19;110629;-82
2022/01/03 14:27:45;;;;;;;;;;;11.60;99.90;;;;;;7345836;19;109424;-83
2022/01/03 14:30:17;;;;;;;;;;;11.60;99.90;;;;;;7343971;19;110748;-82
2022/01/03 14:32:44;;;;;;;;;;;11.60;99.90;;;;;;7343244;19;111985;-82
2022/01/03 14:35:12;;;;;;;;;;;11.60;99.90;;;;;;7343618;19;109686;-82
2022/01/03 14:37:39;;;;;;;;;;;11.60;99.90;;;;;;7345905;19;110568;-82
2022/01/03 14:40:07;;;;;;;;;;;11.50;99.90;;;;;;7344145;19;111681;-82
2022/01/03 14:42:35;;;;;;;;;;;11.50;99.90;;;;;;7345661;19;109332;-82
2022/01/03 14:45:09;;;;;;;;;;;11.50;99.90;;;;;;7350510;19;111023;-82
2022/01/03 14:47:37;;;;;;;;;;;11.50;99.90;;;;;;7345592;19;109353;-82
2022/01/03 14:50:08;;;;;;;;;;;11.40;99.90;;;;;;7343282;19;110847;-82
2022/01/03 14:52:42;;;;;;;;;;;11.40;99.90;;;;;;7343007;19;110364;-82